createdAt,value
2017-03-03T08:04:40.475Z,7.24
2017-03-03T08:05:41.736Z,7.06
2017-03-03T08:06:42.755Z,6.96
2017-03-03T08:07:43.498Z,7
2017-03-03T08:08:44.263Z,7.07
2017-03-03T08:09:44.984Z,7.03
2017-03-03T08:10:45.684Z,6.97
2017-03-03T08:11:46.523Z,6.92
2017-03-03T08:12:47.238Z,6.88
2017-03-03T08:13:47.939Z,6.95
2017-03-03T08:14:48.672Z,6.87
2017-03-03T08:15:49.433Z,6.96
2017-03-03T08:16:50.144Z,6.88
2017-03-03T08:17:50.892Z,7.03
2017-03-03T08:18:51.607Z,7.02
2017-03-03T08:19:52.315Z,7.2
2017-03-03T08:20:53.017Z,7.29
2017-03-03T08:21:53.726Z,7.33
2017-03-03T08:22:54.459Z,7.24
2017-03-03T08:23:55.189Z,7.35
2017-03-03T08:24:55.928Z,7.35
2017-03-03T08:25:56.694Z,7.48
2017-03-03T08:26:57.427Z,7.47
2017-03-03T08:27:58.163Z,7.4
2017-03-03T08:28:58.932Z,7.21
2017-03-03T08:29:59.661Z,7.15
2017-03-03T08:31:00.413Z,7.31
2017-03-03T08:32:01.191Z,7.24
2017-03-03T08:33:01.907Z,7.29
2017-03-03T08:34:02.728Z,7.38
2017-03-03T08:35:03.500Z,7.29
2017-03-03T08:36:04.223Z,7.21
2017-03-03T08:37:04.952Z,7.32
2017-03-03T08:38:05.673Z,7.23
2017-03-03T08:39:06.395Z,7.39
2017-03-03T08:40:07.138Z,7.45
2017-03-03T08:41:07.955Z,7.48
2017-03-03T08:42:08.890Z,7.48
2017-03-03T08:43:09.941Z,7.38
2017-03-03T08:44:13.147Z,7.32
2017-03-03T08:45:16.298Z,7.21
2017-03-03T08:46:17.949Z,7.24
2017-03-03T08:47:18.804Z,7.21
2017-03-03T08:48:19.547Z,7.29
2017-03-03T08:49:20.398Z,7.25
2017-03-03T08:50:21.186Z,7.4
2017-03-03T08:51:22.034Z,7.58
2017-03-03T08:52:22.888Z,7.67
2017-03-03T08:53:23.678Z,7.75
2017-03-03T08:54:24.396Z,7.77
2017-03-03T08:55:25.145Z,7.9
2017-03-03T08:56:25.913Z,7.94
2017-03-03T08:57:26.652Z,8.08
2017-03-03T08:58:27.375Z,8.06
2017-03-03T08:59:28.148Z,8.08
2017-03-03T09:00:28.870Z,8.19
2017-03-03T09:01:29.606Z,8.09
2017-03-03T09:02:30.395Z,8.15
2017-03-03T09:03:31.172Z,8.12
2017-03-03T09:04:31.918Z,8.26
2017-03-03T09:05:32.641Z,8.31
2017-03-03T09:06:33.377Z,8.28
2017-03-03T09:07:34.135Z,8.31
2017-03-03T09:08:34.880Z,8.18
2017-03-03T09:09:35.606Z,8.27
2017-03-03T09:10:36.352Z,8.2
2017-03-03T09:11:37.100Z,8.26
2017-03-03T09:12:37.826Z,8.26
2017-03-03T09:13:38.554Z,8.28
2017-03-03T09:14:39.259Z,8.24
2017-03-03T09:15:40.028Z,8.28
2017-03-03T09:16:40.753Z,8.27
2017-03-03T09:17:41.491Z,8.27
2017-03-03T09:18:42.235Z,8.33
2017-03-03T09:19:42.956Z,8.37
2017-03-03T09:20:43.676Z,8.42
2017-03-03T09:21:44.402Z,8.52
2017-03-03T09:22:45.134Z,8.41
2017-03-03T09:23:45.870Z,8.41
2017-03-03T09:24:46.614Z,8.38
2017-03-03T09:25:47.338Z,8.34
2017-03-03T09:26:48.093Z,8.28
2017-03-03T09:27:48.816Z,8.34
2017-03-03T09:28:49.543Z,8.2
2017-03-03T09:29:50.273Z,8.3
2017-03-03T09:30:50.985Z,8.16
2017-03-03T09:31:51.711Z,8.12
2017-03-03T09:32:52.448Z,8.05
2017-03-03T09:33:53.202Z,8.1
2017-03-03T09:34:53.926Z,8.09
2017-03-03T09:35:54.665Z,8.1
2017-03-03T09:36:55.395Z,8.12
2017-03-03T09:37:56.119Z,8.12
2017-03-03T09:38:56.834Z,8.05
2017-03-03T09:39:57.563Z,8.13
2017-03-03T09:40:58.300Z,7.88
2017-03-03T09:41:59.059Z,7.85
2017-03-03T09:42:59.781Z,7.97
2017-03-03T09:44:00.500Z,7.88
2017-03-03T09:45:01.277Z,7.9
2017-03-03T09:46:02.051Z,7.98
2017-03-03T09:47:02.806Z,7.97
2017-03-03T09:48:03.537Z,7.91
2017-03-03T09:49:04.288Z,7.98
2017-03-03T09:50:05.027Z,8.18
2017-03-03T09:51:05.750Z,8.23
2017-03-03T09:52:07.395Z,8.23
2017-03-03T09:53:08.128Z,8.36
2017-03-03T09:54:08.862Z,8.49
2017-03-03T09:55:09.611Z,8.51
2017-03-03T09:56:10.349Z,8.61
2017-03-03T09:57:11.096Z,8.69
2017-03-03T09:58:11.824Z,8.61
2017-03-03T09:59:12.716Z,8.46
2017-03-03T10:00:13.445Z,8.49
2017-03-03T10:01:14.187Z,8.49
2017-03-03T10:02:14.914Z,8.49
2017-03-03T10:03:15.697Z,8.37
2017-03-03T10:04:16.501Z,8.42
2017-03-03T10:05:17.225Z,8.46
2017-03-03T10:06:17.962Z,8.49
2017-03-03T10:07:18.689Z,8.46
2017-03-03T10:08:19.442Z,8.48
2017-03-03T10:09:20.163Z,8.51
2017-03-03T10:10:20.897Z,8.48
2017-03-03T10:11:21.629Z,8.53
2017-03-03T10:12:22.345Z,8.41
2017-03-03T10:13:23.059Z,8.46
2017-03-03T10:14:23.816Z,8.63
2017-03-03T10:15:24.551Z,8.63
2017-03-03T10:16:25.340Z,8.74
2017-03-03T10:17:26.051Z,8.85
2017-03-03T10:18:26.796Z,8.79
2017-03-03T10:19:27.533Z,8.89
2017-03-03T10:20:28.279Z,8.88
2017-03-03T10:21:29.014Z,9
2017-03-03T10:22:29.752Z,9.14
2017-03-03T10:23:30.517Z,9
2017-03-03T10:24:31.256Z,9.06
2017-03-03T10:25:31.993Z,9.02
2017-03-03T10:26:32.743Z,9.03
2017-03-03T10:27:33.483Z,9.02
2017-03-03T10:28:34.229Z,9.16
2017-03-03T10:29:35.025Z,9.22
2017-03-03T10:30:35.758Z,9.14
2017-03-03T10:31:36.503Z,8.92
2017-03-03T10:32:37.306Z,8.97
2017-03-03T10:33:38.117Z,8.95
2017-03-03T10:34:38.837Z,8.94
2017-03-03T10:35:39.559Z,8.89
2017-03-03T10:36:40.277Z,9.02
2017-03-03T10:37:40.993Z,9.06
2017-03-03T10:38:41.734Z,8.94
2017-03-03T10:39:42.485Z,8.99
2017-03-03T10:40:43.202Z,8.97
2017-03-03T10:41:43.901Z,8.99
2017-03-03T10:42:44.649Z,9.06
2017-03-03T10:43:45.426Z,9.1
2017-03-03T10:44:46.171Z,8.99
2017-03-03T10:45:46.921Z,9.02
2017-03-03T10:46:47.697Z,9.08
2017-03-03T10:47:48.475Z,9.08
2017-03-03T10:48:49.153Z,9.1
2017-03-03T10:49:49.908Z,9.06
2017-03-03T10:50:50.642Z,9.04
2017-03-03T10:51:51.397Z,9.04
2017-03-03T10:52:52.147Z,9.14
2017-03-03T10:53:52.892Z,9.08
2017-03-03T10:54:53.664Z,9.08
2017-03-03T10:55:54.383Z,9.19
2017-03-03T10:56:55.115Z,9.22
2017-03-03T10:57:55.929Z,9.19
2017-03-03T10:58:56.635Z,9.21
2017-03-03T10:59:57.369Z,9.22
2017-03-03T11:00:58.097Z,9.16
2017-03-03T11:01:58.815Z,9.16
2017-03-03T11:02:59.559Z,9.04
2017-03-03T11:04:00.318Z,9.11
2017-03-03T11:05:01.103Z,9.18
2017-03-03T11:06:01.792Z,9.21
2017-03-03T11:07:02.550Z,9.29
2017-03-03T11:08:03.282Z,9.4
2017-03-03T11:09:04.003Z,9.36
2017-03-03T11:10:04.751Z,9.47
2017-03-03T11:11:05.484Z,9.46
2017-03-03T11:12:06.220Z,9.4
2017-03-03T11:13:06.964Z,9.51
2017-03-03T11:14:07.728Z,9.5
2017-03-03T11:15:08.430Z,9.51
2017-03-03T11:16:09.172Z,9.61
2017-03-03T11:17:09.896Z,9.58
2017-03-03T11:18:10.626Z,9.64
2017-03-03T11:19:11.372Z,9.66
2017-03-03T11:20:12.087Z,9.68
2017-03-03T11:21:12.818Z,9.77
2017-03-03T11:22:13.576Z,9.74
2017-03-03T11:23:14.326Z,9.72
2017-03-03T11:24:15.036Z,9.86
2017-03-03T11:25:15.745Z,9.86
2017-03-03T11:26:16.463Z,9.91
2017-03-03T11:27:17.187Z,9.86
2017-03-03T11:28:17.926Z,9.94
2017-03-03T11:29:18.656Z,9.92
2017-03-03T11:30:19.386Z,9.83
2017-03-03T11:31:20.123Z,9.86
2017-03-03T11:32:20.862Z,9.97
2017-03-03T11:33:21.586Z,9.94
2017-03-03T11:34:22.316Z,9.8
2017-03-03T11:35:23.025Z,9.91
2017-03-03T11:36:23.750Z,9.82
2017-03-03T11:37:24.495Z,9.87
2017-03-03T11:38:25.249Z,9.73
2017-03-03T11:39:26.019Z,9.79
2017-03-03T11:40:26.817Z,9.61
2017-03-03T11:41:27.544Z,9.64
2017-03-03T11:42:28.280Z,9.68
2017-03-03T11:43:29.003Z,9.61
2017-03-03T11:44:29.737Z,9.72
2017-03-03T11:45:30.468Z,9.74
2017-03-03T11:46:31.193Z,9.74
2017-03-03T11:47:31.919Z,9.76
2017-03-03T11:48:32.613Z,9.83
2017-03-03T11:49:33.332Z,9.79
2017-03-03T11:50:34.057Z,9.91
2017-03-03T11:51:34.776Z,9.82
2017-03-03T11:52:35.475Z,9.87
2017-03-03T11:53:36.216Z,9.86
2017-03-03T11:54:36.950Z,9.95
2017-03-03T11:55:37.695Z,9.83
2017-03-03T11:56:38.447Z,9.97
2017-03-03T11:57:39.197Z,9.99
2017-03-03T11:58:39.936Z,9.97
2017-03-03T11:59:40.650Z,9.97
2017-03-03T12:00:41.363Z,9.99
2017-03-03T12:01:42.104Z,9.99
2017-03-03T12:02:42.863Z,9.91
2017-03-03T12:03:43.630Z,9.97
2017-03-03T12:04:44.340Z,9.97
2017-03-03T12:05:45.068Z,9.94
2017-03-03T12:06:45.831Z,9.91
2017-03-03T12:07:46.567Z,9.97
2017-03-03T12:08:47.298Z,9.89
2017-03-03T12:09:48.050Z,9.97
2017-03-03T12:10:48.766Z,9.98
2017-03-03T12:11:49.505Z,9.94
2017-03-03T12:12:50.230Z,9.99
2017-03-03T12:13:50.950Z,9.98
2017-03-03T12:14:51.678Z,9.94
2017-03-03T12:15:52.406Z,9.98
2017-03-03T12:16:53.167Z,9.94
2017-03-03T12:17:53.886Z,9.92
2017-03-03T12:18:54.593Z,10.07
2017-03-03T12:19:55.325Z,10.09
2017-03-03T12:20:56.030Z,10.1
2017-03-03T12:21:56.763Z,10.09
2017-03-03T12:22:57.484Z,10.01
2017-03-03T12:23:58.194Z,10.01
2017-03-03T12:24:58.928Z,10.07
2017-03-03T12:25:59.703Z,10.01
2017-03-03T12:27:00.408Z,10.09
2017-03-03T12:28:01.153Z,10.07
2017-03-03T12:29:01.875Z,10.09
2017-03-03T12:30:02.590Z,10.22
2017-03-03T12:31:03.307Z,10.26
2017-03-03T12:32:04.052Z,10.26
2017-03-03T12:33:04.788Z,10.23
2017-03-03T12:34:05.508Z,10.25
2017-03-03T12:35:06.252Z,10.25
2017-03-03T12:36:07.026Z,10.26
2017-03-03T12:37:07.753Z,10.2
2017-03-03T12:38:08.491Z,10.26
2017-03-03T12:39:09.185Z,10.17
2017-03-03T12:40:09.899Z,10.2
2017-03-03T12:41:10.630Z,10.19
2017-03-03T12:42:11.350Z,10.23
2017-03-03T12:43:12.080Z,10.23
2017-03-03T12:44:12.820Z,10.28
2017-03-03T12:45:13.565Z,10.25
2017-03-03T12:46:14.280Z,10.23
2017-03-03T12:47:15.021Z,10.19
2017-03-03T12:48:15.740Z,10.15
2017-03-03T12:49:16.436Z,10.12
2017-03-03T12:50:17.140Z,10.19
2017-03-03T12:51:17.852Z,10.13
2017-03-03T12:52:18.563Z,10.22
2017-03-03T12:53:19.315Z,10.2
2017-03-03T12:54:20.033Z,10.22
2017-03-03T12:55:20.772Z,10.25
2017-03-03T12:56:21.503Z,10.23
2017-03-03T12:57:22.237Z,10.25
2017-03-03T12:58:22.961Z,10.25
2017-03-03T12:59:23.715Z,10.26
2017-03-03T13:00:24.443Z,10.34
2017-03-03T13:01:25.200Z,10.19
2017-03-03T13:02:25.944Z,10.23
2017-03-03T13:03:26.690Z,10.19
2017-03-03T13:04:27.440Z,10.23
2017-03-03T13:05:28.169Z,10.31
2017-03-03T13:06:28.921Z,10.31
2017-03-03T13:07:29.658Z,10.37
2017-03-03T13:08:30.427Z,10.46
2017-03-03T13:09:31.160Z,10.37
2017-03-03T13:10:31.915Z,10.4
2017-03-03T13:11:32.651Z,10.33
2017-03-03T13:12:33.357Z,10.44
2017-03-03T13:13:34.090Z,10.38
2017-03-03T13:14:34.812Z,10.41
2017-03-03T13:15:35.569Z,10.44
2017-03-03T13:16:36.312Z,10.35
2017-03-03T13:17:37.034Z,10.33
2017-03-03T13:18:37.775Z,10.34
2017-03-03T13:19:38.536Z,10.41
2017-03-03T13:20:39.274Z,10.41
2017-03-03T13:21:40.000Z,10.42
2017-03-03T13:22:40.723Z,10.44
2017-03-03T13:23:41.468Z,10.34
2017-03-03T13:24:42.201Z,10.26
2017-03-03T13:25:43.001Z,10.31
2017-03-03T13:26:43.757Z,10.37
2017-03-03T13:27:44.468Z,10.41
2017-03-03T13:28:45.191Z,10.37
2017-03-03T13:29:45.946Z,10.37
2017-03-03T13:30:46.662Z,10.44
2017-03-03T13:31:47.388Z,10.4
2017-03-03T13:32:48.096Z,10.41
2017-03-03T13:33:48.852Z,10.53
2017-03-03T13:34:49.584Z,10.44
2017-03-03T13:35:50.297Z,10.48
2017-03-03T13:36:51.011Z,10.4
2017-03-03T13:37:51.727Z,10.42
2017-03-03T13:38:52.480Z,10.53
2017-03-03T13:39:53.247Z,10.68
2017-03-03T13:40:53.980Z,10.69
2017-03-03T13:41:54.753Z,10.67
2017-03-03T13:42:55.466Z,10.63
2017-03-03T13:43:56.191Z,10.72
2017-03-03T13:44:56.922Z,10.64
2017-03-03T13:45:57.665Z,10.68
2017-03-03T13:46:58.544Z,10.68
2017-03-03T13:47:59.316Z,10.6
2017-03-03T13:49:00.074Z,10.79
2017-03-03T13:50:00.799Z,10.71
2017-03-03T13:51:01.522Z,10.69
2017-03-03T13:52:02.250Z,10.82
2017-03-03T13:53:02.993Z,10.86
2017-03-03T13:54:03.782Z,10.93
2017-03-03T13:55:04.512Z,10.87
2017-03-03T13:56:05.256Z,10.84
2017-03-03T13:57:06.039Z,10.9
2017-03-03T13:58:06.780Z,10.94
2017-03-03T13:59:07.498Z,10.89
2017-03-03T14:00:09.045Z,10.87
2017-03-03T14:01:10.604Z,10.81
2017-03-03T14:02:12.321Z,10.92
2017-03-03T14:03:13.062Z,10.94
2017-03-03T14:04:13.808Z,10.84
2017-03-03T14:05:14.628Z,10.84
2017-03-03T14:06:15.732Z,10.75
2017-03-03T14:07:16.725Z,10.78
2017-03-03T14:08:17.468Z,10.81
2017-03-03T14:09:18.225Z,10.76
2017-03-03T14:10:21.458Z,10.75
2017-03-03T14:11:24.475Z,10.71
2017-03-03T14:12:27.527Z,10.78
2017-03-03T14:13:29.033Z,10.81
2017-03-03T14:14:29.771Z,10.78
2017-03-03T14:15:30.508Z,10.81
2017-03-03T14:16:31.254Z,10.84
2017-03-03T14:17:31.980Z,10.89
2017-03-03T14:18:32.701Z,10.94
2017-03-03T14:19:33.425Z,10.89
2017-03-03T14:20:34.171Z,10.89
2017-03-03T14:21:34.943Z,10.96
2017-03-03T14:22:35.668Z,10.9
2017-03-03T14:23:36.430Z,10.76
2017-03-03T14:24:37.189Z,10.86
2017-03-03T14:25:37.937Z,10.81
2017-03-03T14:26:38.673Z,10.81
2017-03-03T14:27:39.411Z,10.82
2017-03-03T14:28:40.138Z,10.84
2017-03-03T14:29:40.869Z,10.79
2017-03-03T14:30:41.599Z,10.92
2017-03-03T14:31:42.322Z,10.81
2017-03-03T14:32:43.061Z,10.87
2017-03-03T14:33:43.857Z,10.87
2017-03-03T14:34:44.560Z,10.79
2017-03-03T14:35:45.296Z,10.92
2017-03-03T14:36:46.040Z,10.9
2017-03-03T14:37:46.755Z,10.94
2017-03-03T14:38:47.489Z,10.74
2017-03-03T14:39:48.205Z,10.79
2017-03-03T14:40:48.932Z,10.64
2017-03-03T14:41:49.659Z,10.68
2017-03-03T14:42:50.402Z,10.69
2017-03-03T14:43:51.135Z,10.75
2017-03-03T14:44:51.866Z,10.64
2017-03-03T14:45:52.590Z,10.78
2017-03-03T14:46:53.325Z,10.74
2017-03-03T14:47:54.063Z,10.75
2017-03-03T14:48:54.794Z,10.64
2017-03-03T14:49:55.531Z,10.68
2017-03-03T14:50:56.325Z,10.69
2017-03-03T14:51:57.036Z,10.68
2017-03-03T14:52:57.787Z,10.67
2017-03-03T14:53:58.507Z,10.63
2017-03-03T14:54:59.235Z,10.63
2017-03-03T14:55:59.971Z,10.67
2017-03-03T14:57:00.705Z,10.69
2017-03-03T14:58:01.448Z,10.67
2017-03-03T14:59:02.169Z,10.64
2017-03-03T15:00:02.881Z,10.74
2017-03-03T15:01:03.607Z,10.69
2017-03-03T15:02:04.316Z,10.63
2017-03-03T15:03:05.062Z,10.69
2017-03-03T15:04:05.797Z,10.69
2017-03-03T15:05:06.541Z,10.63
2017-03-03T15:06:07.274Z,10.74
2017-03-03T15:07:08.129Z,10.74
2017-03-03T15:08:08.853Z,10.64
2017-03-03T15:09:09.943Z,10.68
2017-03-03T15:10:10.864Z,10.63
2017-03-03T15:11:11.597Z,10.64
2017-03-03T15:12:13.159Z,10.69
2017-03-03T15:13:13.878Z,10.64
2017-03-03T15:14:14.606Z,10.69
2017-03-03T15:15:15.997Z,10.69
2017-03-03T15:16:16.930Z,10.68
2017-03-03T15:17:18.376Z,10.64
2017-03-03T15:18:19.278Z,10.61
2017-03-03T15:19:20.276Z,10.56
2017-03-03T15:20:21.018Z,10.67
2017-03-03T15:21:21.768Z,10.71
2017-03-03T15:22:22.484Z,10.67
2017-03-03T15:23:23.564Z,10.69
2017-03-03T15:24:24.957Z,10.63
2017-03-03T15:25:25.700Z,10.67
2017-03-03T15:26:26.440Z,10.59
2017-03-03T15:27:27.170Z,10.6
2017-03-03T15:28:27.916Z,10.59
2017-03-03T15:29:28.679Z,10.56
2017-03-03T15:30:29.389Z,10.53
2017-03-03T15:31:30.113Z,10.53
2017-03-03T15:32:30.845Z,10.51
2017-03-03T15:33:31.584Z,10.48
2017-03-03T15:34:32.786Z,10.49
2017-03-03T15:35:33.554Z,10.54
2017-03-03T15:36:34.346Z,10.56
2017-03-03T15:37:35.172Z,10.44
2017-03-03T15:38:35.888Z,10.48
2017-03-03T15:39:36.630Z,10.42
2017-03-03T15:40:37.719Z,10.41
2017-03-03T15:41:38.624Z,10.4
2017-03-03T15:42:39.354Z,10.37
2017-03-03T15:43:40.093Z,10.4
2017-03-03T15:44:40.823Z,10.33
2017-03-03T15:45:41.549Z,10.4
2017-03-03T15:46:42.315Z,10.44
2017-03-03T15:47:43.043Z,10.37
2017-03-03T15:48:43.779Z,10.28
2017-03-03T15:49:44.536Z,10.34
2017-03-03T15:50:45.256Z,10.33
2017-03-03T15:51:46.003Z,10.38
2017-03-03T15:52:46.735Z,10.3
2017-03-03T15:53:47.529Z,10.31
2017-03-03T15:54:48.247Z,10.3
2017-03-03T15:55:48.995Z,10.31
2017-03-03T15:56:49.752Z,10.34
2017-03-03T15:57:50.496Z,10.31
2017-03-03T15:58:51.557Z,10.25
2017-03-03T15:59:52.954Z,10.22
2017-03-03T16:00:54.186Z,10.2
2017-03-03T16:01:55.202Z,10.31
2017-03-03T16:02:56.894Z,10.23
2017-03-03T16:03:57.887Z,10.26
2017-03-03T16:04:58.953Z,10.2
2017-03-03T16:05:59.816Z,10.28
2017-03-03T16:07:00.795Z,10.25
2017-03-03T16:08:01.612Z,10.2
2017-03-03T16:09:02.808Z,10.22
2017-03-03T16:10:03.544Z,10.17
2017-03-03T16:11:04.467Z,10.23
2017-03-03T16:12:05.187Z,10.17
2017-03-03T16:13:06.247Z,10.26
2017-03-03T16:14:06.979Z,10.19
2017-03-03T16:15:07.757Z,10.19
2017-03-03T16:16:09.138Z,10.19
2017-03-03T16:17:10.094Z,10.26
2017-03-03T16:18:10.871Z,10.25
2017-03-03T16:19:12.368Z,10.22
2017-03-03T16:20:13.932Z,10.2
2017-03-03T16:21:14.702Z,10.1
2017-03-03T16:22:15.445Z,10.16
2017-03-03T16:23:16.181Z,10.07
2017-03-03T16:24:16.928Z,10.07
2017-03-03T16:25:17.655Z,10.12
2017-03-03T16:26:18.420Z,10.07
2017-03-03T16:27:19.161Z,10.16
2017-03-03T16:28:19.901Z,10.05
2017-03-03T16:29:20.640Z,10.12
2017-03-03T16:30:21.369Z,10.07
2017-03-03T16:31:22.107Z,10.09
2017-03-03T16:32:22.861Z,10.09
2017-03-03T16:33:23.780Z,10.01
2017-03-03T16:34:24.499Z,10.05
2017-03-03T16:35:25.263Z,10.01
2017-03-03T16:36:25.994Z,10.07
2017-03-03T16:37:26.800Z,10.07
2017-03-03T16:38:27.757Z,10.09
2017-03-03T16:39:28.546Z,10.04
2017-03-03T16:40:29.602Z,10.09
2017-03-03T16:41:30.370Z,10.07
2017-03-03T16:42:31.152Z,10.05
2017-03-03T16:43:31.931Z,10.02
2017-03-03T16:44:32.668Z,9.99
2017-03-03T16:45:33.423Z,9.97
2017-03-03T16:46:34.162Z,9.97
2017-03-03T16:47:34.940Z,9.89
2017-03-03T16:48:35.676Z,9.86
2017-03-03T16:49:36.444Z,9.92
2017-03-03T16:50:37.209Z,9.87
2017-03-03T16:51:37.997Z,9.84
2017-03-03T16:52:38.793Z,9.84
2017-03-03T16:53:39.599Z,9.8
2017-03-03T16:54:40.356Z,9.87
2017-03-03T16:55:41.132Z,9.89
2017-03-03T16:56:41.902Z,9.86
2017-03-03T16:57:42.741Z,9.84
2017-03-03T16:58:43.466Z,9.84
2017-03-03T16:59:44.210Z,9.79
2017-03-03T17:00:44.939Z,9.82
2017-03-03T17:01:45.686Z,9.89
2017-03-03T17:02:46.433Z,9.79
2017-03-03T17:03:47.208Z,9.74
2017-03-03T17:04:48.033Z,9.79
2017-03-03T17:05:48.789Z,9.74
2017-03-03T17:06:49.608Z,9.74
2017-03-03T17:07:50.351Z,9.79
2017-03-03T17:08:51.075Z,9.74
2017-03-03T17:09:51.809Z,9.8
2017-03-03T17:10:52.532Z,9.79
2017-03-03T17:11:53.260Z,9.79
2017-03-03T17:12:54.014Z,9.73
2017-03-03T17:13:54.751Z,9.73
2017-03-03T17:14:55.485Z,9.69
2017-03-03T17:15:56.243Z,9.74
2017-03-03T17:16:56.963Z,9.72
2017-03-03T17:17:57.734Z,9.73
2017-03-03T17:18:58.478Z,9.65
2017-03-03T17:19:59.248Z,9.66
2017-03-03T17:20:59.987Z,9.66
2017-03-03T17:22:00.730Z,9.76
2017-03-03T17:23:01.474Z,9.61
2017-03-03T17:24:02.231Z,9.68
2017-03-03T17:25:02.998Z,9.69
2017-03-03T17:26:03.720Z,9.64
2017-03-03T17:27:04.447Z,9.61
2017-03-03T17:28:05.199Z,9.65
2017-03-03T17:29:05.955Z,9.64
2017-03-03T17:30:06.712Z,9.65
2017-03-03T17:31:07.436Z,9.68
2017-03-03T17:32:08.200Z,9.66
2017-03-03T17:33:08.958Z,9.61
2017-03-03T17:34:09.699Z,9.65
2017-03-03T17:35:10.414Z,9.62
2017-03-03T17:36:11.149Z,9.68
2017-03-03T17:37:11.884Z,9.62
2017-03-03T17:38:12.620Z,9.58
2017-03-03T17:39:13.357Z,9.66
2017-03-03T17:40:14.449Z,9.68
2017-03-03T17:41:15.190Z,9.64
2017-03-03T17:42:15.918Z,9.64
2017-03-03T17:43:16.651Z,9.55
2017-03-03T17:44:17.376Z,9.64
2017-03-03T17:45:18.136Z,9.64
2017-03-03T17:46:18.851Z,9.62
2017-03-03T17:47:19.598Z,9.56
2017-03-03T17:48:20.338Z,9.48
2017-03-03T17:49:21.061Z,9.55
2017-03-03T17:50:21.820Z,9.56
2017-03-03T17:51:22.545Z,9.58
2017-03-03T17:52:23.289Z,9.59
2017-03-03T17:53:24.036Z,9.5
2017-03-03T17:54:24.773Z,9.55
2017-03-03T17:55:25.513Z,9.47
2017-03-03T17:56:26.257Z,9.54
2017-03-03T17:57:26.988Z,9.54
2017-03-03T17:58:27.727Z,9.5
2017-03-03T17:59:28.534Z,9.5
2017-03-03T18:00:30.121Z,9.48
2017-03-03T18:01:31.960Z,9.59
2017-03-03T18:02:32.683Z,9.48
2017-03-03T18:03:33.407Z,9.58
2017-03-03T18:04:34.121Z,9.46
2017-03-03T18:05:34.874Z,9.47
2017-03-03T18:06:35.587Z,9.47
2017-03-03T18:07:36.329Z,9.47
2017-03-03T18:08:37.088Z,9.44
2017-03-03T18:09:37.838Z,9.4
2017-03-03T18:10:38.570Z,9.4
2017-03-03T18:11:39.303Z,9.41
2017-03-03T18:12:40.044Z,9.37
2017-03-03T18:13:40.789Z,9.34
2017-03-03T18:14:41.722Z,9.39
2017-03-03T18:15:42.437Z,9.47
2017-03-03T18:16:43.160Z,9.37
2017-03-03T18:17:43.880Z,9.32
2017-03-03T18:18:44.654Z,9.32
2017-03-03T18:19:45.393Z,9.37
2017-03-03T18:20:46.128Z,9.39
2017-03-03T18:21:46.881Z,9.36
2017-03-03T18:22:47.704Z,9.32
2017-03-03T18:23:48.417Z,9.28
2017-03-03T18:24:49.141Z,9.34
2017-03-03T18:25:49.858Z,9.32
2017-03-03T18:26:50.616Z,9.34
2017-03-03T18:27:51.346Z,9.34
2017-03-03T18:28:52.091Z,9.29
2017-03-03T18:29:52.903Z,9.29
2017-03-03T18:30:53.654Z,9.34
2017-03-03T18:31:54.396Z,9.29
2017-03-03T18:32:55.128Z,9.26
2017-03-03T18:33:55.858Z,9.31
2017-03-03T18:34:56.608Z,9.31
2017-03-03T18:35:57.336Z,9.36
2017-03-03T18:36:58.068Z,9.29
2017-03-03T18:37:58.808Z,9.26
2017-03-03T18:38:59.534Z,9.25
2017-03-03T18:40:00.260Z,9.22
2017-03-03T18:41:01.115Z,9.32
2017-03-03T18:42:01.980Z,9.26
2017-03-03T18:43:02.717Z,9.19
2017-03-03T18:44:03.445Z,9.21
2017-03-03T18:45:04.172Z,9.18
2017-03-03T18:46:04.898Z,9.23
2017-03-03T18:47:05.605Z,9.25
2017-03-03T18:48:06.341Z,9.18
2017-03-03T18:49:07.053Z,9.21
2017-03-03T18:50:07.778Z,9.19
2017-03-03T18:51:08.575Z,9.19
2017-03-03T18:52:09.308Z,9.18
2017-03-03T18:53:10.086Z,9.18
2017-03-03T18:54:10.812Z,9.18
2017-03-03T18:55:11.532Z,9.14
2017-03-03T18:56:12.290Z,9.13
2017-03-03T18:57:13.002Z,9.13
2017-03-03T18:58:13.766Z,9.13
2017-03-03T18:59:14.529Z,9.14
2017-03-03T19:00:15.285Z,9.08
2017-03-03T19:01:16.013Z,9.08
2017-03-03T19:02:16.771Z,9.08
2017-03-03T19:03:17.683Z,9.02
2017-03-03T19:04:18.844Z,9
2017-03-03T19:05:19.609Z,9.04
2017-03-03T19:06:21.017Z,9.08
2017-03-03T19:07:22.189Z,8.97
2017-03-03T19:08:23.946Z,9.06
2017-03-03T19:09:25.496Z,9.02
2017-03-03T19:10:27.385Z,9.03
2017-03-03T19:11:28.226Z,9
2017-03-03T19:12:28.949Z,8.95
2017-03-03T19:13:30.066Z,8.99
2017-03-03T19:14:30.882Z,8.91
2017-03-03T19:15:31.822Z,9.03
2017-03-03T19:16:32.763Z,8.94
2017-03-03T19:17:34.295Z,8.97
2017-03-03T19:18:35.012Z,9
2017-03-03T19:19:35.826Z,8.99
2017-03-03T19:20:36.567Z,9.04
2017-03-03T19:21:37.744Z,8.99
2017-03-03T19:22:38.606Z,8.94
2017-03-03T19:23:40.464Z,8.87
2017-03-03T19:24:42.757Z,8.92
2017-03-03T19:25:43.967Z,8.87
2017-03-03T19:26:44.946Z,8.91
2017-03-03T19:27:45.844Z,8.92
2017-03-03T19:28:46.778Z,8.92
2017-03-03T19:29:47.839Z,8.89
2017-03-03T19:30:48.632Z,8.87
2017-03-03T19:31:49.784Z,8.85
2017-03-03T19:32:50.943Z,8.92
2017-03-03T19:33:51.888Z,8.87
2017-03-03T19:34:53.397Z,8.89
2017-03-03T19:35:54.209Z,8.91
2017-03-03T19:36:55.043Z,8.85
2017-03-03T19:37:56.116Z,8.92
2017-03-03T19:38:56.856Z,8.91
2017-03-03T19:39:57.679Z,8.87
2017-03-03T19:40:58.679Z,8.89
2017-03-03T19:41:59.868Z,8.89
2017-03-03T19:43:01.234Z,8.97
2017-03-03T19:44:02.366Z,9.03
2017-03-03T19:45:03.137Z,8.99
2017-03-03T19:46:03.866Z,9.02
2017-03-03T19:47:04.648Z,9
2017-03-03T19:48:05.446Z,9
2017-03-03T19:49:06.217Z,8.99
2017-03-03T19:50:07.161Z,8.97
2017-03-03T19:51:07.901Z,8.95
2017-03-03T19:52:08.659Z,9.02
2017-03-03T19:53:09.818Z,8.99
2017-03-03T19:54:10.578Z,9.04
2017-03-03T19:55:11.379Z,8.99
2017-03-03T19:56:12.220Z,9.03
2017-03-03T19:57:12.979Z,9.04
2017-03-03T19:58:13.828Z,9
2017-03-03T19:59:14.582Z,9.02
2017-03-03T20:00:15.335Z,9.11
2017-03-03T20:01:16.758Z,9.03
2017-03-03T20:02:17.767Z,9.08
2017-03-03T20:03:18.498Z,9.04
2017-03-03T20:04:19.249Z,9.04
2017-03-03T20:05:20.003Z,9.1
2017-03-03T20:06:20.769Z,9.1
2017-03-03T20:07:22.010Z,9.08
2017-03-03T20:08:23.059Z,9.04
2017-03-03T20:09:24.236Z,9.08
2017-03-03T20:10:25.165Z,9.14
2017-03-03T20:11:26.307Z,9
2017-03-03T20:12:27.361Z,9.08
2017-03-03T20:13:28.234Z,9.1
2017-03-03T20:14:28.953Z,9.08
2017-03-03T20:15:29.696Z,9.1
2017-03-03T20:16:30.482Z,9.06
2017-03-03T20:17:31.310Z,9.11
2017-03-03T20:18:32.121Z,9
2017-03-03T20:19:32.874Z,9.03
2017-03-03T20:20:33.652Z,9.11
2017-03-03T20:21:35.225Z,9.06
2017-03-03T20:22:36.036Z,9.08
2017-03-03T20:23:36.888Z,9.08
2017-03-03T20:24:37.996Z,8.99
2017-03-03T20:25:38.742Z,8.99
2017-03-03T20:26:39.475Z,9.03
2017-03-03T20:27:40.213Z,9.03
2017-03-03T20:28:41.292Z,9.03
2017-03-03T20:29:42.124Z,9.02
2017-03-03T20:30:42.845Z,8.88
2017-03-03T20:31:43.635Z,8.88
2017-03-03T20:32:44.373Z,8.84
2017-03-03T20:33:45.127Z,8.89
2017-03-03T20:34:45.865Z,8.85
2017-03-03T20:35:46.608Z,8.94
2017-03-03T20:36:47.341Z,8.91
2017-03-03T20:37:48.201Z,8.92
2017-03-03T20:38:48.934Z,8.92
2017-03-03T20:39:49.659Z,8.88
2017-03-03T20:40:50.994Z,8.89
2017-03-03T20:41:51.756Z,8.89
2017-03-03T20:42:52.509Z,8.89
2017-03-03T20:43:53.234Z,8.88
2017-03-03T20:44:53.977Z,8.94
2017-03-03T20:45:54.694Z,8.88
2017-03-03T20:46:55.524Z,8.89
2017-03-03T20:47:56.404Z,8.92
2017-03-03T20:48:57.125Z,8.88
2017-03-03T20:49:58.066Z,8.95
2017-03-03T20:50:58.796Z,8.99
2017-03-03T20:51:59.520Z,9.02
2017-03-03T20:53:00.235Z,8.89
2017-03-03T20:54:00.976Z,8.92
2017-03-03T20:55:02.234Z,8.91
2017-03-03T20:56:03.086Z,8.99
2017-03-03T20:57:04.198Z,9
2017-03-03T20:58:04.948Z,8.99
2017-03-03T20:59:05.705Z,9
2017-03-03T21:00:06.429Z,8.89
2017-03-03T21:01:07.214Z,8.91
2017-03-03T21:02:08.019Z,8.92
2017-03-03T21:03:08.832Z,8.95
2017-03-03T21:04:09.636Z,8.89
2017-03-03T21:05:10.444Z,8.88
2017-03-03T21:06:11.303Z,8.87
2017-03-03T21:07:12.196Z,8.88
2017-03-03T21:08:12.981Z,8.81
2017-03-03T21:09:13.862Z,8.88
2017-03-03T21:10:14.767Z,8.92
2017-03-03T21:11:15.729Z,8.89
2017-03-03T21:12:16.660Z,8.87
2017-03-03T21:13:17.572Z,8.92
2017-03-03T21:14:18.450Z,8.88
2017-03-03T21:15:19.307Z,8.92
2017-03-03T21:16:20.163Z,8.91
2017-03-03T21:17:20.989Z,8.88
2017-03-03T21:18:21.828Z,8.92
2017-03-03T21:19:22.699Z,9
2017-03-03T21:20:23.454Z,8.94
2017-03-03T21:21:24.191Z,8.94
2017-03-03T21:22:25.082Z,8.89
2017-03-03T21:23:26.014Z,8.89
2017-03-03T21:24:26.917Z,8.87
2017-03-03T21:25:27.849Z,8.88
2017-03-03T21:26:28.699Z,8.89
2017-03-03T21:27:29.536Z,8.92